William M Feehan — WDH9474 — position and weather

sailwx.info

Track history (hours):
 
Tides and Currents Weather Stations Pressure Air Temp Water Temp Dewpoint Dewpoint Depression Visibility Wind Speed Wind Dir Waves Ship Positions

William M Feehan

Owner: NYC FIRE DEPT, BROOKLYN, NY. More information available from US FCC via Universal Licensing System.

Last reported at 2018-Feb-25 14:00 UTC. Time now 2018-Feb-25 14:02 UTC.
Position N 40°42' W 073°58'.

Type: SAR. MMSI: 367668450.

Date/timePositionNaut miles runAvg speedWind from/ knotsBaromVisibWave heightAir tempDewpointWater temp
2018-Feb-25 14:00N 40°42' W 073°58'0 0.0
2018-Feb-25 13:30N 40°42' W 073°58'0 0.0
2018-Feb-25 13:00N 40°42' W 073°58'0 0.0
2018-Feb-25 12:30N 40°42' W 073°58'0 0.0
2018-Feb-25 12:00N 40°42' W 073°58'0 0.0
2018-Feb-25 11:30N 40°42' W 073°58'0 0.0
2018-Feb-25 11:00N 40°42' W 073°58'0 0.0
2018-Feb-25 10:30N 40°42' W 073°58'0 0.0
2018-Feb-25 10:00N 40°42' W 073°58'0 0.0
2018-Feb-25 09:30N 40°42' W 073°58'0 0.0
2018-Feb-25 09:00N 40°42' W 073°58'0 0.0
2018-Feb-25 08:30N 40°42' W 073°58'0 0.0
2018-Feb-25 08:00N 40°42' W 073°58'0 0.0
2018-Feb-25 07:30N 40°42' W 073°58'0 0.0
2018-Feb-25 07:00N 40°42' W 073°58'0 0.0
2018-Feb-25 06:30N 40°42' W 073°58'0 0.0
2018-Feb-25 06:00N 40°42' W 073°58'0 0.0
2018-Feb-25 05:30N 40°42' W 073°58'0 0.0
2018-Feb-25 05:00N 40°42' W 073°58'0 0.0
2018-Feb-25 04:26N 40°42' W 073°58'0 0.0
2018-Feb-25 04:00N 40°42' W 073°58'0 0.0
2018-Feb-25 03:30N 40°42' W 073°58'0 0.0
2018-Feb-25 03:00N 40°42' W 073°58'0 0.0
2018-Feb-25 02:00N 40°42' W 073°58'0 0.0
2018-Feb-25 01:30N 40°42' W 073°58'0 0.0
2018-Feb-25 01:00N 40°42' W 073°58'0 0.0
2018-Feb-25 00:30N 40°42' W 073°58'0 0.0
2018-Feb-25 00:00N 40°42' W 073°58'0 0.0
2018-Feb-24 23:30N 40°42' W 073°58'0 0.0
2018-Feb-24 23:00N 40°42' W 073°58'0 0.0
2018-Feb-24 22:30N 40°42' W 073°58'0 0.0
2018-Feb-24 22:00N 40°42' W 073°58'0 0.0
2018-Feb-24 21:30N 40°42' W 073°58'0 0.0
2018-Feb-24 21:00N 40°42' W 073°58'0 0.0
2018-Feb-24 20:30N 40°42' W 073°58'0 0.0
2018-Feb-24 20:00N 40°42' W 073°58'0 0.0
2018-Feb-24 19:30N 40°42' W 073°58'0 0.0
2018-Feb-24 19:00N 40°42' W 073°58'0 0.0
2018-Feb-24 18:29N 40°42' W 073°58'2 4.5
2018-Feb-24 18:00N 40°43' W 074°01'1 2.4
2018-Feb-24 17:31N 40°44' W 074°01'1 2.1
2018-Feb-24 17:00N 40°43' W 074°01'611.0
2018-Feb-24 16:30N 40°38' W 074°04'0 0.0
2018-Feb-24 15:59N 40°38' W 074°04'3 5.3
2018-Feb-24 15:31N 40°40' W 074°03'4 8.1
2018-Feb-24 15:00N 40°42' W 073°58'0 0.0
2018-Feb-24 14:30N 40°42' W 073°58'0 0.0
2018-Feb-24 14:00N 40°42' W 073°58'0 0.0
2018-Feb-24 13:26N 40°42' W 073°58'0 0.0
2018-Feb-24 13:00N 40°42' W 073°58'0 0.0
2018-Feb-24 12:30N 40°42' W 073°58'0 0.0
2018-Feb-24 12:00N 40°42' W 073°58'0 0.0
2018-Feb-24 11:30N 40°42' W 073°58'0 0.0
2018-Feb-24 11:00N 40°42' W 073°58'0 0.0
2018-Feb-24 10:30N 40°42' W 073°58'0 0.0
2018-Feb-24 10:00N 40°42' W 073°58'0 0.0
2018-Feb-24 09:30N 40°42' W 073°58'0 0.0
2018-Feb-24 09:00N 40°42' W 073°58'0 0.0
2018-Feb-24 08:30N 40°42' W 073°58'0 0.0
2018-Feb-24 08:00N 40°42' W 073°58'0 0.0
2018-Feb-24 07:30N 40°42' W 073°58'0 0.0
2018-Feb-24 07:00N 40°42' W 073°58'0 0.0
2018-Feb-24 06:30N 40°42' W 073°58'0 0.0
2018-Feb-24 06:00N 40°42' W 073°58'0 0.0
2018-Feb-24 05:30N 40°42' W 073°58'0 0.0
2018-Feb-24 05:00N 40°42' W 073°58'0 0.0
2018-Feb-24 04:30N 40°42' W 073°58'0 0.0
2018-Feb-24 04:00N 40°42' W 073°58'0 0.0
2018-Feb-24 03:29N 40°42' W 073°58'0 0.0
2018-Feb-24 03:00N 40°42' W 073°58'0 0.0
2018-Feb-24 02:30N 40°42' W 073°58'0 0.0
2018-Feb-24 02:00N 40°42' W 073°58'0 0.0
2018-Feb-24 01:30N 40°42' W 073°58'0 0.0
2018-Feb-24 01:00N 40°42' W 073°58'0 0.0
2018-Feb-24 00:30N 40°42' W 073°58'0 0.0
2018-Feb-24 00:00N 40°42' W 073°58'0 0.0
2018-Feb-23 23:30N 40°42' W 073°58'0 0.0
2018-Feb-23 23:00N 40°42' W 073°58'0 0.0
2018-Feb-23 22:29N 40°42' W 073°58'0 0.0
2018-Feb-23 22:00N 40°42' W 073°58'0 0.0
2018-Feb-23 21:30N 40°42' W 073°58'0 0.0
2018-Feb-23 21:00N 40°42' W 073°58'0 0.0
2018-Feb-23 20:30N 40°42' W 073°58'0 0.0
2018-Feb-23 19:59N 40°42' W 073°58'0 0.0
2018-Feb-23 19:30N 40°42' W 073°58'0 0.0
2018-Feb-23 19:00N 40°42' W 073°58'0 0.0
2018-Feb-23 18:30N 40°42' W 073°58'0 0.0
2018-Feb-23 18:00N 40°42' W 073°58'0 0.0
2018-Feb-23 17:30N 40°42' W 073°58'0 0.0
2018-Feb-23 17:00N 40°42' W 073°58'0 0.0
2018-Feb-23 16:30N 40°42' W 073°58'0 0.7
2018-Feb-23 16:01N 40°43' W 073°59'0 0.7
2018-Feb-23 15:30N 40°42' W 073°58'0 0.0
2018-Feb-23 15:01N 40°42' W 073°58'0 0.0
2018-Feb-23 14:31N 40°42' W 073°58'0 0.0
2018-Feb-23 14:01N 40°42' W 073°58'0 0.0
2018-Feb-23 13:30N 40°42' W 073°58'0 0.0
2018-Feb-23 13:00N 40°42' W 073°58'0 0.0
2018-Feb-23 12:30N 40°42' W 073°58'0 0.0
2018-Feb-23 12:00N 40°42' W 073°58'0 0.0
2018-Feb-23 11:31N 40°42' W 073°58'0 0.0
2018-Feb-23 11:00N 40°42' W 073°58'0 0.0
2018-Feb-23 10:30N 40°42' W 073°58'0 0.0
2018-Feb-23 10:00N 40°42' W 073°58'0 0.0
2018-Feb-23 09:30N 40°42' W 073°58'0 0.0
2018-Feb-23 09:00N 40°42' W 073°58'0 0.0
2018-Feb-23 08:30N 40°42' W 073°58'0 0.0
2018-Feb-23 08:00N 40°42' W 073°58'0 0.0
2018-Feb-23 07:30N 40°42' W 073°58'0 0.0
2018-Feb-23 07:00N 40°42' W 073°58'0 0.0
2018-Feb-23 06:30N 40°42' W 073°58'0 0.0
2018-Feb-23 06:00N 40°42' W 073°58'0 0.0
2018-Feb-23 05:31N 40°42' W 073°58'0 0.0
2018-Feb-23 05:00N 40°42' W 073°58'0 0.0
2018-Feb-23 04:30N 40°42' W 073°58'0 0.0
2018-Feb-23 04:00N 40°42' W 073°58'0 0.0
2018-Feb-23 03:30N 40°42' W 073°58'0 0.0
2018-Feb-23 03:00N 40°42' W 073°58'0 0.0
2018-Feb-23 02:31N 40°42' W 073°58'0 0.0
2018-Feb-23 02:00N 40°42' W 073°58'0 0.0
2018-Feb-23 01:30N 40°42' W 073°58'0 0.0
2018-Feb-23 01:00N 40°42' W 073°58'0 0.0
2018-Feb-23 00:30N 40°42' W 073°58'0 0.0
2018-Feb-23 00:00N 40°42' W 073°58'0 0.0
2018-Feb-22 23:29N 40°42' W 073°58'0 0.0
2018-Feb-22 23:01N 40°42' W 073°58'0 0.0
2018-Feb-22 22:31N 40°42' W 073°58'0 0.0
2018-Feb-22 22:00N 40°42' W 073°58'0 0.0
2018-Feb-22 21:30N 40°42' W 073°58'0 0.0
2018-Feb-22 21:01N 40°42' W 073°58'0 0.0
2018-Feb-22 20:30N 40°42' W 073°58'0 0.0
2018-Feb-22 20:01N 40°42' W 073°58'0 0.0
2018-Feb-22 19:30N 40°42' W 073°58'0 0.0
2018-Feb-22 19:00N 40°42' W 073°58'0 0.0
2018-Feb-22 18:30N 40°42' W 073°58'0 0.0
2018-Feb-22 18:01N 40°42' W 073°58'0 0.0
2018-Feb-22 17:30N 40°42' W 073°58'0 0.0
2018-Feb-22 17:00N 40°42' W 073°58'4 7.8
2018-Feb-22 16:30N 40°46' W 074°00'4 7.2
2018-Feb-22 16:00N 40°42' W 073°60'1 2.0
2018-Feb-22 15:30N 40°42' W 073°58'0 0.0
2018-Feb-22 15:00N 40°42' W 073°58'0 0.0
2018-Feb-22 14:30N 40°42' W 073°58'0 0.0
2018-Feb-22 14:00N 40°42' W 073°58'0 0.0
2018-Feb-22 13:30N 40°42' W 073°58'0 0.0
2018-Feb-22 13:00N 40°42' W 073°58'0 0.0
2018-Feb-22 12:30N 40°42' W 073°58'0 0.0
2018-Feb-22 12:00N 40°42' W 073°58'0 0.0
2018-Feb-22 11:30N 40°42' W 073°58'0 0.0
2018-Feb-22 11:00N 40°42' W 073°58'0 0.0
2018-Feb-22 10:30N 40°42' W 073°58'0 0.0
2018-Feb-22 10:00N 40°42' W 073°58'0 0.0
2018-Feb-22 09:30N 40°42' W 073°58'0 0.0
2018-Feb-22 09:00N 40°42' W 073°58'0 0.0
2018-Feb-22 08:30N 40°42' W 073°58'0 0.0
2018-Feb-22 08:00N 40°42' W 073°58'0 0.0
2018-Feb-22 07:30N 40°42' W 073°58'0 0.0
2018-Feb-22 07:00N 40°42' W 073°58'0 0.0
2018-Feb-22 06:30N 40°42' W 073°58'0 0.0
2018-Feb-22 06:00N 40°42' W 073°58'0 0.0
2018-Feb-22 05:30N 40°42' W 073°58'0 0.0
2018-Feb-22 05:00N 40°42' W 073°58'0 0.0
2018-Feb-22 04:30N 40°42' W 073°58'0 0.0
2018-Feb-22 03:59N 40°42' W 073°58'0 0.0
2018-Feb-22 03:30N 40°42' W 073°58'0 0.0
2018-Feb-22 03:00N 40°42' W 073°58'0 0.0
2018-Feb-22 02:30N 40°42' W 073°58'0 0.0
2018-Feb-22 02:00N 40°42' W 073°58'0 0.0
2018-Feb-22 01:30N 40°42' W 073°58'0 0.0
2018-Feb-22 01:00N 40°42' W 073°58'0 0.0
2018-Feb-22 00:30N 40°42' W 073°58'0 0.0
2018-Feb-21 23:59N 40°42' W 073°58'0 0.0
2018-Feb-21 23:30N 40°42' W 073°58'0 0.0
2018-Feb-21 23:00N 40°42' W 073°58'0 0.0
2018-Feb-21 22:30N 40°42' W 073°58'0 0.0
2018-Feb-21 22:00N 40°42' W 073°58'0 0.0
2018-Feb-21 21:30N 40°42' W 073°58'0 0.0
2018-Feb-21 20:59N 40°42' W 073°58'0 0.0
2018-Feb-21 20:30N 40°42' W 073°58'0 0.0
2018-Feb-21 20:00N 40°42' W 073°58'0 0.0
2018-Feb-21 19:30N 40°42' W 073°58'3 1.8
2018-Feb-21 18:00N 40°40' W 074°01'3 5.6
2018-Feb-21 17:30N 40°42' W 073°58'0 0.0
2018-Feb-21 16:59N 40°42' W 073°58'0 0.0
2018-Feb-21 16:30N 40°42' W 073°58'0 0.0
2018-Feb-21 16:00N 40°42' W 073°58'0 0.0
2018-Feb-21 15:30N 40°42' W 073°58'0 0.0
2018-Feb-21 14:59N 40°42' W 073°58'0 0.0
2018-Feb-21 14:30N 40°42' W 073°58'0 0.0
2018-Feb-21 14:00N 40°42' W 073°58'0 0.0
2018-Feb-21 13:30N 40°42' W 073°58'0 0.0
2018-Feb-21 13:00N 40°42' W 073°58'0 0.0
2018-Feb-21 12:30N 40°42' W 073°58'0 0.0
2018-Feb-21 12:00N 40°42' W 073°58'0 0.0
2018-Feb-21 11:30N 40°42' W 073°58'0 0.0
2018-Feb-21 11:00N 40°42' W 073°58'0 0.0
2018-Feb-21 10:30N 40°42' W 073°58'0 0.0
2018-Feb-21 10:00N 40°42' W 073°58'0 0.0
2018-Feb-21 09:30N 40°42' W 073°58'0 0.0
2018-Feb-21 09:00N 40°42' W 073°58'0 0.0
2018-Feb-21 08:30N 40°42' W 073°58'0 0.0
2018-Feb-21 08:00N 40°42' W 073°58'0 0.0
2018-Feb-21 07:30N 40°42' W 073°58'0 0.0
2018-Feb-21 07:00N 40°42' W 073°58'0 0.0
2018-Feb-21 06:30N 40°42' W 073°58'0 0.0
2018-Feb-21 06:00N 40°42' W 073°58'0 0.0
2018-Feb-21 05:30N 40°42' W 073°58'0 0.0
2018-Feb-21 05:00N 40°42' W 073°58'0 0.0
2018-Feb-21 04:30N 40°42' W 073°58'0 0.0
2018-Feb-21 04:00N 40°42' W 073°58'0 0.0
2018-Feb-21 03:30N 40°42' W 073°58'0 0.0
2018-Feb-21 03:00N 40°42' W 073°58'0 0.0
2018-Feb-21 02:30N 40°42' W 073°58'0 0.0
2018-Feb-21 02:00N 40°42' W 073°58'0 0.0
2018-Feb-21 01:30N 40°42' W 073°58'0 0.0
2018-Feb-21 01:00N 40°42' W 073°58'0 0.0
2018-Feb-21 00:30N 40°42' W 073°58'0 0.0
2018-Feb-21 00:01N 40°42' W 073°58'0 0.0
2018-Feb-20 23:30N 40°42' W 073°58'2 3.5
2018-Feb-20 23:01N 40°42' W 074°01'2 3.5
2018-Feb-20 22:30N 40°43' W 074°02'3 5.0
2018-Feb-20 22:00N 40°40' W 074°01'3 5.4
2018-Feb-20 21:30N 40°42' W 073°58'0 0.0
2018-Feb-20 21:00N 40°42' W 073°58'0 0.0
2018-Feb-20 20:30N 40°42' W 073°58'0 0.0
2018-Feb-20 20:00N 40°42' W 073°58'0 0.0
2018-Feb-20 19:30N 40°42' W 073°58'0 0.0
2018-Feb-20 19:01N 40°42' W 073°58'0 0.0
2018-Feb-20 18:30N 40°42' W 073°58'0 0.0
2018-Feb-20 18:00N 40°42' W 073°58'0 0.0
2018-Feb-20 17:30N 40°42' W 073°58'0 0.0
2018-Feb-20 17:00N 40°42' W 073°58'0 0.0
2018-Feb-20 16:30N 40°42' W 073°58'0 0.0
2018-Feb-20 16:00N 40°42' W 073°58'0 0.0
2018-Feb-20 15:30N 40°42' W 073°58'0 0.0
2018-Feb-20 15:00N 40°42' W 073°58'0 0.0
2018-Feb-20 14:30N 40°42' W 073°58'0 0.0
2018-Feb-20 14:00N 40°42' W 073°58'0 0.0
2018-Feb-20 13:30N 40°42' W 073°58'0 0.0
2018-Feb-20 13:00N 40°42' W 073°58'0 0.0
2018-Feb-20 12:29N 40°42' W 073°58'0 0.0
2018-Feb-20 12:00N 40°42' W 073°58'0 0.0
2018-Feb-20 11:30N 40°42' W 073°58'0 0.0
2018-Feb-20 11:00N 40°42' W 073°58'0 0.0
2018-Feb-20 10:30N 40°42' W 073°58'0 0.0
2018-Feb-20 10:00N 40°42' W 073°58'0 0.0
2018-Feb-20 09:30N 40°42' W 073°58'0 0.0
2018-Feb-20 09:00N 40°42' W 073°58'0 0.0
2018-Feb-20 08:30N 40°42' W 073°58'0 0.0
2018-Feb-20 08:00N 40°42' W 073°58'0 0.0
2018-Feb-20 07:28N 40°42' W 073°58'0 0.0
2018-Feb-20 06:58N 40°42' W 073°58'0 0.0
2018-Feb-20 06:30N 40°42' W 073°58'0 0.0
2018-Feb-20 06:00N 40°42' W 073°58'0 0.0
2018-Feb-20 05:30N 40°42' W 073°58'0 0.0
2018-Feb-20 05:00N 40°42' W 073°58'0 0.0
2018-Feb-20 04:30N 40°42' W 073°58'0 0.0
2018-Feb-20 04:00N 40°42' W 073°58'0 0.0
2018-Feb-20 03:30N 40°42' W 073°58'0 0.0
2018-Feb-20 03:00N 40°42' W 073°58'0 0.0
2018-Feb-20 02:30N 40°42' W 073°58'0 0.0
2018-Feb-20 02:00N 40°42' W 073°58'0 0.0
2018-Feb-20 01:30N 40°42' W 073°58'0 0.0
2018-Feb-20 01:00N 40°42' W 073°58'0 0.0
2018-Feb-20 00:29N 40°42' W 073°58'0 0.0
2018-Feb-20 00:00N 40°42' W 073°58'0 0.0
2018-Feb-19 23:30N 40°42' W 073°58'1 2.8
2018-Feb-19 23:00N 40°44' W 073°58'1 2.9
2018-Feb-19 22:30N 40°42' W 073°58'0 0.0
2018-Feb-19 22:00N 40°42' W 073°58'0 0.0
2018-Feb-19 21:29N 40°42' W 073°58'0 0.0
2018-Feb-19 21:00N 40°42' W 073°58'0 0.0
2018-Feb-19 20:30N 40°42' W 073°58'0 0.0
2018-Feb-19 20:00N 40°42' W 073°58'0 0.0
2018-Feb-19 19:30N 40°42' W 073°58'0 0.0
2018-Feb-19 19:00N 40°42' W 073°58'0 0.0
2018-Feb-19 18:30N 40°42' W 073°58'0 0.0
2018-Feb-19 18:00N 40°42' W 073°58'0 0.0
2018-Feb-19 17:30N 40°42' W 073°58'0 0.0
2018-Feb-19 17:00N 40°42' W 073°58'0 0.0
2018-Feb-19 16:29N 40°42' W 073°58'0 0.0
2018-Feb-19 16:00N 40°42' W 073°58'0 0.0
2018-Feb-19 15:30N 40°42' W 073°58'0 0.0
2018-Feb-19 15:01N 40°42' W 073°58'0 0.0
2018-Feb-19 14:30N 40°42' W 073°58'0 0.0
2018-Feb-19 14:00N 40°42' W 073°58'0 0.0
2018-Feb-19 13:30N 40°42' W 073°58'0 0.0
2018-Feb-19 13:00N 40°42' W 073°58'0 0.0
2018-Feb-19 12:30N 40°42' W 073°58'0 0.0
2018-Feb-19 12:00N 40°42' W 073°58'0 0.0
2018-Feb-19 11:30N 40°42' W 073°58'3 5.4
2018-Feb-19 11:00N 40°42' W 074°02'3 5.4
2018-Feb-19 10:30N 40°42' W 073°58'0 0.0
2018-Feb-19 10:01N 40°42' W 073°58'0 0.0
2018-Feb-19 09:30N 40°42' W 073°58'0 0.0
2018-Feb-19 09:00N 40°42' W 073°58'0 0.0
2018-Feb-19 08:30N 40°42' W 073°58'0 0.0
2018-Feb-19 08:00N 40°42' W 073°58'0 0.0
2018-Feb-19 07:30N 40°42' W 073°58'0 0.0
2018-Feb-19 07:00N 40°42' W 073°58'0 0.0
2018-Feb-19 06:30N 40°42' W 073°58'0 0.0
2018-Feb-19 05:59N 40°42' W 073°58'0 0.0
2018-Feb-19 05:29N 40°42' W 073°58'0 0.0
2018-Feb-19 05:01N 40°42' W 073°58'0 0.0
2018-Feb-19 04:31N 40°42' W 073°58'0 0.0
2018-Feb-19 03:59N 40°42' W 073°58'0 0.0
2018-Feb-19 03:30N 40°42' W 073°58'0 0.0
2018-Feb-19 03:00N 40°42' W 073°58'0 0.0
2018-Feb-19 02:30N 40°42' W 073°58'0 0.0
2018-Feb-19 01:59N 40°42' W 073°58'0 0.0
2018-Feb-19 01:29N 40°42' W 073°58'0 0.0
2018-Feb-19 01:01N 40°42' W 073°58'0 0.0
2018-Feb-19 00:30N 40°42' W 073°58'0 0.0
2018-Feb-19 00:01N 40°42' W 073°58'0 0.0
2018-Feb-18 23:30N 40°42' W 073°58'0 0.0
2018-Feb-18 23:00N 40°42' W 073°58'0 0.0
2018-Feb-18 22:30N 40°42' W 073°58'0 0.0
2018-Feb-18 22:00N 40°42' W 073°58'0 0.0
2018-Feb-18 21:30N 40°42' W 073°58'0 0.0
2018-Feb-18 21:00N 40°42' W 073°58'0 0.0
2018-Feb-18 20:31N 40°42' W 073°58'0 0.0
2018-Feb-18 20:01N 40°42' W 073°58'0 0.0
2018-Feb-18 19:30N 40°42' W 073°58'0 0.0
2018-Feb-18 18:59N 40°42' W 073°58'0 0.0
2018-Feb-18 18:30N 40°42' W 073°58'2 4.1
2018-Feb-18 18:00N 40°43' W 074°01'2 4.2
2018-Feb-18 17:30N 40°42' W 073°58'0 0.0
2018-Feb-18 17:00N 40°42' W 073°58'0 0.0
2018-Feb-18 16:30N 40°42' W 073°58'0 0.0
2018-Feb-18 16:00N 40°42' W 073°58'0 0.0
2018-Feb-18 15:29N 40°42' W 073°58'0 0.0
2018-Feb-18 15:00N 40°42' W 073°58'0 0.0
2018-Feb-18 14:30N 40°42' W 073°58'0 0.0
2018-Feb-18 14:00N 40°42' W 073°58'0 0.0
2018-Feb-18 13:29N 40°42' W 073°58'0 0.0
2018-Feb-18 13:00N 40°42' W 073°58'0 0.0
2018-Feb-18 12:30N 40°42' W 073°58'0 0.0
2018-Feb-18 12:00N 40°42' W 073°58'0 0.0
2018-Feb-18 11:29N 40°42' W 073°58'0 0.0
2018-Feb-18 11:00N 40°42' W 073°58'0 0.0
2018-Feb-18 10:30N 40°42' W 073°58'0 0.0
2018-Feb-18 10:00N 40°42' W 073°58'0 0.0
2018-Feb-18 09:30N 40°42' W 073°58'0 0.0
2018-Feb-18 09:00N 40°42' W 073°58'0 0.0
2018-Feb-18 08:30N 40°42' W 073°58'0 0.0
2018-Feb-18 07:59N 40°42' W 073°58'0 0.0
2018-Feb-18 07:30N 40°42' W 073°58'0 0.0
2018-Feb-18 07:00N 40°42' W 073°58'0 0.0
2018-Feb-18 06:30N 40°42' W 073°58'0 0.0
2018-Feb-18 06:00N 40°42' W 073°58'0 0.0
2018-Feb-18 05:30N 40°42' W 073°58'0 0.0
2018-Feb-18 05:00N 40°42' W 073°58'0 0.0
2018-Feb-18 04:30N 40°42' W 073°58'0 0.0
2018-Feb-18 04:00N 40°42' W 073°58'0 0.0
2018-Feb-18 03:30N 40°42' W 073°58'0 0.0
2018-Feb-18 03:00N 40°42' W 073°58'0 0.0
2018-Feb-18 02:30N 40°42' W 073°58'0 0.0
2018-Feb-18 02:00N 40°42' W 073°58'0 0.0
2018-Feb-18 01:28N 40°42' W 073°58'0 0.0
2018-Feb-18 01:00N 40°42' W 073°58'0 0.0
2018-Feb-18 00:30N 40°42' W 073°58'0 0.0
2018-Feb-18 00:00N 40°42' W 073°58'0 0.0
2018-Feb-17 23:30N 40°42' W 073°58'0 0.0
2018-Feb-17 23:00N 40°42' W 073°58'0 0.0
2018-Feb-17 22:30N 40°42' W 073°58'0 0.0
2018-Feb-17 22:00N 40°42' W 073°58'0 0.0
2018-Feb-17 21:30N 40°42' W 073°58'0 0.0
2018-Feb-17 21:00N 40°42' W 073°58'0 0.0
2018-Feb-17 20:30N 40°42' W 073°58'0 0.0
2018-Feb-17 20:00N 40°42' W 073°58'0 0.0
2018-Feb-17 19:30N 40°42' W 073°58'0 0.0
2018-Feb-17 19:00N 40°42' W 073°58'0 0.0
2018-Feb-17 18:30N 40°42' W 073°58'0 0.0
2018-Feb-17 18:00N 40°42' W 073°58'0 0.0
2018-Feb-17 17:30N 40°42' W 073°58'0 0.0
2018-Feb-17 17:00N 40°42' W 073°58'0 0.0
2018-Feb-17 16:30N 40°42' W 073°58'0 0.0
2018-Feb-17 15:59N 40°42' W 073°58'0 0.0
2018-Feb-17 15:30N 40°42' W 073°58'0 0.0
2018-Feb-17 15:00N 40°42' W 073°58'0 0.0
2018-Feb-17 14:30N 40°42' W 073°58'0 0.0
2018-Feb-17 14:00N 40°42' W 073°58'0 0.0
2018-Feb-17 13:30N 40°42' W 073°58'0 0.0
2018-Feb-17 13:00N 40°42' W 073°58'0 0.0
2018-Feb-17 12:30N 40°42' W 073°58'0 0.0
2018-Feb-17 12:00N 40°42' W 073°58'0 0.0
2018-Feb-17 11:30N 40°42' W 073°58'0 0.0
2018-Feb-17 11:00N 40°42' W 073°58'0 0.0
2018-Feb-17 10:30N 40°42' W 073°58'0 0.0
2018-Feb-17 10:00N 40°42' W 073°58'0 0.0
2018-Feb-17 09:30N 40°42' W 073°58'0 0.0
2018-Feb-17 09:00N 40°42' W 073°58'0 0.0
2018-Feb-17 08:30N 40°42' W 073°58'0 0.0
2018-Feb-17 08:00N 40°42' W 073°58'0 0.0
2018-Feb-17 07:29N 40°42' W 073°58'0 0.0
2018-Feb-17 07:00N 40°42' W 073°58'0 0.0
2018-Feb-17 06:30N 40°42' W 073°58'0 0.0
2018-Feb-17 06:00N 40°42' W 073°58'0 0.0
2018-Feb-17 05:30N 40°42' W 073°58'0 0.0
2018-Feb-17 05:00N 40°42' W 073°58'0 0.0
2018-Feb-17 04:30N 40°42' W 073°58'0 0.0
2018-Feb-17 03:59N 40°42' W 073°58'0 0.0
2018-Feb-17 03:30N 40°42' W 073°58'0 0.0
2018-Feb-17 03:00N 40°42' W 073°58'0 0.0
2018-Feb-17 02:30N 40°42' W 073°58'0 0.0
2018-Feb-17 02:00N 40°42' W 073°58'0 0.0
2018-Feb-17 01:30N 40°42' W 073°58'0 0.0
2018-Feb-17 01:00N 40°42' W 073°58'0 0.0
2018-Feb-17 00:30N 40°42' W 073°58'0 0.0
2018-Feb-17 00:00N 40°42' W 073°58'0 0.0
2018-Feb-16 23:30N 40°42' W 073°58'0 0.0
2018-Feb-16 23:00N 40°42' W 073°58'0 0.0
2018-Feb-16 22:30N 40°42' W 073°58'2 4.9
2018-Feb-16 22:00N 40°40' W 073°60'0 0.0
2018-Feb-16 21:30N 40°40' W 073°60'0 0.1
2018-Feb-16 21:00N 40°40' W 073°60'2 4.9
2018-Feb-16 20:30N 40°42' W 073°58'0 0.0
2018-Feb-16 20:00N 40°42' W 073°58'0 0.0
2018-Feb-16 19:30N 40°42' W 073°58'0 0.0
2018-Feb-16 18:59N 40°42' W 073°58'0 0.0
2018-Feb-16 18:30N 40°42' W 073°58'0 0.0
2018-Feb-16 18:00N 40°42' W 073°58'0 0.0
2018-Feb-16 17:30N 40°42' W 073°58'0 0.0
2018-Feb-16 17:00N 40°42' W 073°58'1 2.9
2018-Feb-16 16:30N 40°42' W 074°00'2 3.8
2018-Feb-16 16:00N 40°41' W 074°03'2 3.7
2018-Feb-16 15:30N 40°43' W 074°01'2 4.1
2018-Feb-16 14:59N 40°42' W 073°58'0 0.0
2018-Feb-16 14:30N 40°42' W 073°58'0 0.0
2018-Feb-16 14:00N 40°42' W 073°58'0 0.0
2018-Feb-16 13:30N 40°42' W 073°58'0 0.0
2018-Feb-16 13:00N 40°42' W 073°58'0 0.0
2018-Feb-16 12:30N 40°42' W 073°58'0 0.0
2018-Feb-16 12:00N 40°42' W 073°58'0 0.0
2018-Feb-16 11:30N 40°42' W 073°58'0 0.0
2018-Feb-16 11:00N 40°42' W 073°58'0 0.0
2018-Feb-16 10:30N 40°42' W 073°58'0 0.0
2018-Feb-16 10:00N 40°42' W 073°58'0 0.0
2018-Feb-16 09:30N 40°42' W 073°58'0 0.0
2018-Feb-16 09:00N 40°42' W 073°58'0 0.0
2018-Feb-16 08:30N 40°42' W 073°58'0 0.0
2018-Feb-16 07:59N 40°42' W 073°58'0 0.0
2018-Feb-16 07:30N 40°42' W 073°58'0 0.0
2018-Feb-16 07:00N 40°42' W 073°58'0 0.0
2018-Feb-16 06:30N 40°42' W 073°58'0 0.0
2018-Feb-16 05:57N 40°42' W 073°58'0 0.0
2018-Feb-16 05:30N 40°42' W 073°58'0 0.0
2018-Feb-16 04:55N 40°42' W 073°58'0 0.0
2018-Feb-16 04:30N 40°42' W 073°58'0 0.0
2018-Feb-16 04:00N 40°42' W 073°58'0 0.0
2018-Feb-16 03:30N 40°42' W 073°58'0 0.0
2018-Feb-16 03:00N 40°42' W 073°58'0 0.0
2018-Feb-16 02:30N 40°42' W 073°58'0 0.0
2018-Feb-16 02:00N 40°42' W 073°58'0 0.0
2018-Feb-16 01:30N 40°42' W 073°58'0 0.0
2018-Feb-16 01:00N 40°42' W 073°58'0 0.0
2018-Feb-16 00:30N 40°42' W 073°58'0 0.0
2018-Feb-16 00:00N 40°42' W 073°58'0 0.0
2018-Feb-15 23:30N 40°42' W 073°58'0 0.0
2018-Feb-15 23:00N 40°42' W 073°58'0 0.0
2018-Feb-15 22:30N 40°42' W 073°58'0 0.0
2018-Feb-15 22:00N 40°42' W 073°58'0 0.0
2018-Feb-15 21:30N 40°42' W 073°58'1 1.2
2018-Feb-15 21:00N 40°42' W 073°59'1 1.2
2018-Feb-15 20:30N 40°42' W 073°58'0 0.0
2018-Feb-15 20:00N 40°42' W 073°58'0 0.0
2018-Feb-15 19:30N 40°42' W 073°58'0 0.0
2018-Feb-15 19:00N 40°42' W 073°58'0 0.0
2018-Feb-15 18:28N 40°42' W 073°58'0 0.0
2018-Feb-15 18:00N 40°42' W 073°58'0 0.0
2018-Feb-15 17:30N 40°42' W 073°58'0 0.0
2018-Feb-15 17:00N 40°42' W 073°58'0 0.0
2018-Feb-15 16:29N 40°42' W 073°58'0 0.0
2018-Feb-15 16:00N 40°42' W 073°58'0 0.0
2018-Feb-15 15:30N 40°42' W 073°58'0 0.0
2018-Feb-15 15:00N 40°42' W 073°58'0 0.0
2018-Feb-15 14:30N 40°42' W 073°58'  
Track history (hours):
 
Tides and Currents Weather Stations Pressure Air Temp Water Temp Dewpoint Dewpoint Depression Visibility Wind Speed Wind Dir Waves Ship Positions

William M Feehan

Owner: NYC FIRE DEPT, BROOKLYN, NY. More information available from US FCC via Universal Licensing System.

Last reported at 2018-Feb-25 14:00 UTC. Time now 2018-Feb-25 14:02 UTC.
Position N 40°42' W 073°58'.

Type: SAR. MMSI: 367668450.

Date/timePositionNaut miles runAvg speedWind from/ knotsBaromVisibWave heightAir tempDewpointWater temp
2018-Feb-25 14:00N 40°42' W 073°58'0 0.0
2018-Feb-25 13:30N 40°42' W 073°58'0 0.0
2018-Feb-25 13:00N 40°42' W 073°58'0 0.0
2018-Feb-25 12:30N 40°42' W 073°58'0 0.0
2018-Feb-25 12:00N 40°42' W 073°58'0 0.0
2018-Feb-25 11:30N 40°42' W 073°58'0 0.0
2018-Feb-25 11:00N 40°42' W 073°58'0 0.0
2018-Feb-25 10:30N 40°42' W 073°58'0 0.0
2018-Feb-25 10:00N 40°42' W 073°58'0 0.0
2018-Feb-25 09:30N 40°42' W 073°58'0 0.0
2018-Feb-25 09:00N 40°42' W 073°58'0 0.0
2018-Feb-25 08:30N 40°42' W 073°58'0 0.0
2018-Feb-25 08:00N 40°42' W 073°58'0 0.0
2018-Feb-25 07:30N 40°42' W 073°58'0 0.0
2018-Feb-25 07:00N 40°42' W 073°58'0 0.0
2018-Feb-25 06:30N 40°42' W 073°58'0 0.0
2018-Feb-25 06:00N 40°42' W 073°58'0 0.0
2018-Feb-25 05:30N 40°42' W 073°58'0 0.0
2018-Feb-25 05:00N 40°42' W 073°58'0 0.0
2018-Feb-25 04:26N 40°42' W 073°58'0 0.0
2018-Feb-25 04:00N 40°42' W 073°58'0 0.0
2018-Feb-25 03:30N 40°42' W 073°58'0 0.0
2018-Feb-25 03:00N 40°42' W 073°58'0 0.0
2018-Feb-25 02:00N 40°42' W 073°58'0 0.0
2018-Feb-25 01:30N 40°42' W 073°58'0 0.0
2018-Feb-25 01:00N 40°42' W 073°58'0 0.0
2018-Feb-25 00:30N 40°42' W 073°58'0 0.0
2018-Feb-25 00:00N 40°42' W 073°58'0 0.0
2018-Feb-24 23:30N 40°42' W 073°58'0 0.0
2018-Feb-24 23:00N 40°42' W 073°58'0 0.0
2018-Feb-24 22:30N 40°42' W 073°58'0 0.0
2018-Feb-24 22:00N 40°42' W 073°58'0 0.0
2018-Feb-24 21:30N 40°42' W 073°58'0 0.0
2018-Feb-24 21:00N 40°42' W 073°58'0 0.0
2018-Feb-24 20:30N 40°42' W 073°58'0 0.0
2018-Feb-24 20:00N 40°42' W 073°58'0 0.0
2018-Feb-24 19:30N 40°42' W 073°58'0 0.0
2018-Feb-24 19:00N 40°42' W 073°58'0 0.0
2018-Feb-24 18:29N 40°42' W 073°58'2 4.5
2018-Feb-24 18:00N 40°43' W 074°01'1 2.4
2018-Feb-24 17:31N 40°44' W 074°01'1 2.1
2018-Feb-24 17:00N 40°43' W 074°01'611.0
2018-Feb-24 16:30N 40°38' W 074°04'0 0.0
2018-Feb-24 15:59N 40°38' W 074°04'3 5.3
2018-Feb-24 15:31N 40°40' W 074°03'4 8.1
2018-Feb-24 15:00N 40°42' W 073°58'0 0.0
2018-Feb-24 14:30N 40°42' W 073°58'0 0.0
2018-Feb-24 14:00N 40°42' W 073°58'0 0.0
2018-Feb-24 13:26N 40°42' W 073°58'0 0.0
2018-Feb-24 13:00N 40°42' W 073°58'0 0.0
2018-Feb-24 12:30N 40°42' W 073°58'0 0.0
2018-Feb-24 12:00N 40°42' W 073°58'0 0.0
2018-Feb-24 11:30N 40°42' W 073°58'0 0.0
2018-Feb-24 11:00N 40°42' W 073°58'0 0.0
2018-Feb-24 10:30N 40°42' W 073°58'0 0.0
2018-Feb-24 10:00N 40°42' W 073°58'0 0.0
2018-Feb-24 09:30N 40°42' W 073°58'0 0.0
2018-Feb-24 09:00N 40°42' W 073°58'0 0.0
2018-Feb-24 08:30N 40°42' W 073°58'0 0.0
2018-Feb-24 08:00N 40°42' W 073°58'0 0.0
2018-Feb-24 07:30N 40°42' W 073°58'0 0.0
2018-Feb-24 07:00N 40°42' W 073°58'0 0.0
2018-Feb-24 06:30N 40°42' W 073°58'0 0.0
2018-Feb-24 06:00N 40°42' W 073°58'0 0.0
2018-Feb-24 05:30N 40°42' W 073°58'0 0.0
2018-Feb-24 05:00N 40°42' W 073°58'0 0.0
2018-Feb-24 04:30N 40°42' W 073°58'0 0.0
2018-Feb-24 04:00N 40°42' W 073°58'0 0.0
2018-Feb-24 03:29N 40°42' W 073°58'0 0.0
2018-Feb-24 03:00N 40°42' W 073°58'0 0.0
2018-Feb-24 02:30N 40°42' W 073°58'0 0.0
2018-Feb-24 02:00N 40°42' W 073°58'0 0.0
2018-Feb-24 01:30N 40°42' W 073°58'0 0.0
2018-Feb-24 01:00N 40°42' W 073°58'0 0.0
2018-Feb-24 00:30N 40°42' W 073°58'0 0.0
2018-Feb-24 00:00N 40°42' W 073°58'0 0.0
2018-Feb-23 23:30N 40°42' W 073°58'0 0.0
2018-Feb-23 23:00N 40°42' W 073°58'0 0.0
2018-Feb-23 22:29N 40°42' W 073°58'0 0.0
2018-Feb-23 22:00N 40°42' W 073°58'0 0.0
2018-Feb-23 21:30N 40°42' W 073°58'0 0.0
2018-Feb-23 21:00N 40°42' W 073°58'0 0.0
2018-Feb-23 20:30N 40°42' W 073°58'0 0.0
2018-Feb-23 19:59N 40°42' W 073°58'0 0.0
2018-Feb-23 19:30N 40°42' W 073°58'0 0.0
2018-Feb-23 19:00N 40°42' W 073°58'0 0.0
2018-Feb-23 18:30N 40°42' W 073°58'0 0.0
2018-Feb-23 18:00N 40°42' W 073°58'0 0.0
2018-Feb-23 17:30N 40°42' W 073°58'0 0.0
2018-Feb-23 17:00N 40°42' W 073°58'0 0.0
2018-Feb-23 16:30N 40°42' W 073°58'0 0.7
2018-Feb-23 16:01N 40°43' W 073°59'0 0.7
2018-Feb-23 15:30N 40°42' W 073°58'0 0.0
2018-Feb-23 15:01N 40°42' W 073°58'0 0.0
2018-Feb-23 14:31N 40°42' W 073°58'0 0.0
2018-Feb-23 14:01N 40°42' W 073°58'0 0.0
2018-Feb-23 13:30N 40°42' W 073°58'0 0.0
2018-Feb-23 13:00N 40°42' W 073°58'0 0.0
2018-Feb-23 12:30N 40°42' W 073°58'0 0.0
2018-Feb-23 12:00N 40°42' W 073°58'0 0.0
2018-Feb-23 11:31N 40°42' W 073°58'0 0.0
2018-Feb-23 11:00N 40°42' W 073°58'0 0.0
2018-Feb-23 10:30N 40°42' W 073°58'0 0.0
2018-Feb-23 10:00N 40°42' W 073°58'0 0.0
2018-Feb-23 09:30N 40°42' W 073°58'0 0.0
2018-Feb-23 09:00N 40°42' W 073°58'0 0.0
2018-Feb-23 08:30N 40°42' W 073°58'0 0.0
2018-Feb-23 08:00N 40°42' W 073°58'0 0.0
2018-Feb-23 07:30N 40°42' W 073°58'0 0.0
2018-Feb-23 07:00N 40°42' W 073°58'0 0.0
2018-Feb-23 06:30N 40°42' W 073°58'0 0.0
2018-Feb-23 06:00N 40°42' W 073°58'0 0.0
2018-Feb-23 05:31N 40°42' W 073°58'0 0.0
2018-Feb-23 05:00N 40°42' W 073°58'0 0.0
2018-Feb-23 04:30N 40°42' W 073°58'0 0.0
2018-Feb-23 04:00N 40°42' W 073°58'0 0.0
2018-Feb-23 03:30N 40°42' W 073°58'0 0.0
2018-Feb-23 03:00N 40°42' W 073°58'0 0.0
2018-Feb-23 02:31N 40°42' W 073°58'0 0.0
2018-Feb-23 02:00N 40°42' W 073°58'0 0.0
2018-Feb-23 01:30N 40°42' W 073°58'0 0.0
2018-Feb-23 01:00N 40°42' W 073°58'0 0.0
2018-Feb-23 00:30N 40°42' W 073°58'0 0.0
2018-Feb-23 00:00N 40°42' W 073°58'0 0.0
2018-Feb-22 23:29N 40°42' W 073°58'0 0.0
2018-Feb-22 23:01N 40°42' W 073°58'0 0.0
2018-Feb-22 22:31N 40°42' W 073°58'0 0.0
2018-Feb-22 22:00N 40°42' W 073°58'0 0.0
2018-Feb-22 21:30N 40°42' W 073°58'0 0.0
2018-Feb-22 21:01N 40°42' W 073°58'0 0.0
2018-Feb-22 20:30N 40°42' W 073°58'0 0.0
2018-Feb-22 20:01N 40°42' W 073°58'0 0.0
2018-Feb-22 19:30N 40°42' W 073°58'0 0.0
2018-Feb-22 19:00N 40°42' W 073°58'0 0.0
2018-Feb-22 18:30N 40°42' W 073°58'0 0.0
2018-Feb-22 18:01N 40°42' W 073°58'0 0.0
2018-Feb-22 17:30N 40°42' W 073°58'0 0.0
2018-Feb-22 17:00N 40°42' W 073°58'4 7.8
2018-Feb-22 16:30N 40°46' W 074°00'4 7.2
2018-Feb-22 16:00N 40°42' W 073°60'1 2.0
2018-Feb-22 15:30N 40°42' W 073°58'0 0.0
2018-Feb-22 15:00N 40°42' W 073°58'0 0.0
2018-Feb-22 14:30N 40°42' W 073°58'0 0.0
2018-Feb-22 14:00N 40°42' W 073°58'0 0.0
2018-Feb-22 13:30N 40°42' W 073°58'0 0.0
2018-Feb-22 13:00N 40°42' W 073°58'0 0.0
2018-Feb-22 12:30N 40°42' W 073°58'0 0.0
2018-Feb-22 12:00N 40°42' W 073°58'0 0.0
2018-Feb-22 11:30N 40°42' W 073°58'0 0.0
2018-Feb-22 11:00N 40°42' W 073°58'0 0.0
2018-Feb-22 10:30N 40°42' W 073°58'0 0.0
2018-Feb-22 10:00N 40°42' W 073°58'0 0.0
2018-Feb-22 09:30N 40°42' W 073°58'0 0.0
2018-Feb-22 09:00N 40°42' W 073°58'0 0.0
2018-Feb-22 08:30N 40°42' W 073°58'0 0.0
2018-Feb-22 08:00N 40°42' W 073°58'0 0.0
2018-Feb-22 07:30N 40°42' W 073°58'0 0.0
2018-Feb-22 07:00N 40°42' W 073°58'0 0.0
2018-Feb-22 06:30N 40°42' W 073°58'0 0.0
2018-Feb-22 06:00N 40°42' W 073°58'0 0.0
2018-Feb-22 05:30N 40°42' W 073°58'0 0.0
2018-Feb-22 05:00N 40°42' W 073°58'0 0.0
2018-Feb-22 04:30N 40°42' W 073°58'0 0.0
2018-Feb-22 03:59N 40°42' W 073°58'0 0.0
2018-Feb-22 03:30N 40°42' W 073°58'0 0.0
2018-Feb-22 03:00N 40°42' W 073°58'0 0.0
2018-Feb-22 02:30N 40°42' W 073°58'0 0.0
2018-Feb-22 02:00N 40°42' W 073°58'0 0.0
2018-Feb-22 01:30N 40°42' W 073°58'0 0.0
2018-Feb-22 01:00N 40°42' W 073°58'0 0.0
2018-Feb-22 00:30N 40°42' W 073°58'0 0.0
2018-Feb-21 23:59N 40°42' W 073°58'0 0.0
2018-Feb-21 23:30N 40°42' W 073°58'0 0.0
2018-Feb-21 23:00N 40°42' W 073°58'0 0.0
2018-Feb-21 22:30N 40°42' W 073°58'0 0.0
2018-Feb-21 22:00N 40°42' W 073°58'0 0.0
2018-Feb-21 21:30N 40°42' W 073°58'0 0.0
2018-Feb-21 20:59N 40°42' W 073°58'0 0.0
2018-Feb-21 20:30N 40°42' W 073°58'0 0.0
2018-Feb-21 20:00N 40°42' W 073°58'0 0.0
2018-Feb-21 19:30N 40°42' W 073°58'3 1.8
2018-Feb-21 18:00N 40°40' W 074°01'3 5.6
2018-Feb-21 17:30N 40°42' W 073°58'0 0.0
2018-Feb-21 16:59N 40°42' W 073°58'0 0.0
2018-Feb-21 16:30N 40°42' W 073°58'0 0.0
2018-Feb-21 16:00N 40°42' W 073°58'0 0.0
2018-Feb-21 15:30N 40°42' W 073°58'0 0.0
2018-Feb-21 14:59N 40°42' W 073°58'0 0.0
2018-Feb-21 14:30N 40°42' W 073°58'0 0.0
2018-Feb-21 14:00N 40°42' W 073°58'0 0.0
2018-Feb-21 13:30N 40°42' W 073°58'0 0.0
2018-Feb-21 13:00N 40°42' W 073°58'0 0.0
2018-Feb-21 12:30N 40°42' W 073°58'0 0.0
2018-Feb-21 12:00N 40°42' W 073°58'0 0.0
2018-Feb-21 11:30N 40°42' W 073°58'0 0.0
2018-Feb-21 11:00N 40°42' W 073°58'0 0.0
2018-Feb-21 10:30N 40°42' W 073°58'0 0.0
2018-Feb-21 10:00N 40°42' W 073°58'0 0.0
2018-Feb-21 09:30N 40°42' W 073°58'0 0.0
2018-Feb-21 09:00N 40°42' W 073°58'0 0.0
2018-Feb-21 08:30N 40°42' W 073°58'0 0.0
2018-Feb-21 08:00N 40°42' W 073°58'0 0.0
2018-Feb-21 07:30N 40°42' W 073°58'0 0.0
2018-Feb-21 07:00N 40°42' W 073°58'0 0.0
2018-Feb-21 06:30N 40°42' W 073°58'0 0.0
2018-Feb-21 06:00N 40°42' W 073°58'0 0.0
2018-Feb-21 05:30N 40°42' W 073°58'0 0.0
2018-Feb-21 05:00N 40°42' W 073°58'0 0.0
2018-Feb-21 04:30N 40°42' W 073°58'0 0.0
2018-Feb-21 04:00N 40°42' W 073°58'0 0.0
2018-Feb-21 03:30N 40°42' W 073°58'0 0.0
2018-Feb-21 03:00N 40°42' W 073°58'0 0.0
2018-Feb-21 02:30N 40°42' W 073°58'0 0.0
2018-Feb-21 02:00N 40°42' W 073°58'0 0.0
2018-Feb-21 01:30N 40°42' W 073°58'0 0.0
2018-Feb-21 01:00N 40°42' W 073°58'0 0.0
2018-Feb-21 00:30N 40°42' W 073°58'0 0.0
2018-Feb-21 00:01N 40°42' W 073°58'0 0.0
2018-Feb-20 23:30N 40°42' W 073°58'2 3.5
2018-Feb-20 23:01N 40°42' W 074°01'2 3.5
2018-Feb-20 22:30N 40°43' W 074°02'3 5.0
2018-Feb-20 22:00N 40°40' W 074°01'3 5.4
2018-Feb-20 21:30N 40°42' W 073°58'0 0.0
2018-Feb-20 21:00N 40°42' W 073°58'0 0.0
2018-Feb-20 20:30N 40°42' W 073°58'0 0.0
2018-Feb-20 20:00N 40°42' W 073°58'0 0.0
2018-Feb-20 19:30N 40°42' W 073°58'0 0.0
2018-Feb-20 19:01N 40°42' W 073°58'0 0.0
2018-Feb-20 18:30N 40°42' W 073°58'0 0.0
2018-Feb-20 18:00N 40°42' W 073°58'0 0.0
2018-Feb-20 17:30N 40°42' W 073°58'0 0.0
2018-Feb-20 17:00N 40°42' W 073°58'0 0.0
2018-Feb-20 16:30N 40°42' W 073°58'0 0.0
2018-Feb-20 16:00N 40°42' W 073°58'0 0.0
2018-Feb-20 15:30N 40°42' W 073°58'0 0.0
2018-Feb-20 15:00N 40°42' W 073°58'0 0.0
2018-Feb-20 14:30N 40°42' W 073°58'0 0.0
2018-Feb-20 14:00N 40°42' W 073°58'0 0.0
2018-Feb-20 13:30N 40°42' W 073°58'0 0.0
2018-Feb-20 13:00N 40°42' W 073°58'0 0.0
2018-Feb-20 12:29N 40°42' W 073°58'0 0.0
2018-Feb-20 12:00N 40°42' W 073°58'0 0.0
2018-Feb-20 11:30N 40°42' W 073°58'0 0.0
2018-Feb-20 11:00N 40°42' W 073°58'0 0.0
2018-Feb-20 10:30N 40°42' W 073°58'0 0.0
2018-Feb-20 10:00N 40°42' W 073°58'0 0.0
2018-Feb-20 09:30N 40°42' W 073°58'0 0.0
2018-Feb-20 09:00N 40°42' W 073°58'0 0.0
2018-Feb-20 08:30N 40°42' W 073°58'0 0.0
2018-Feb-20 08:00N 40°42' W 073°58'0 0.0
2018-Feb-20 07:28N 40°42' W 073°58'0 0.0
2018-Feb-20 06:58N 40°42' W 073°58'0 0.0
2018-Feb-20 06:30N 40°42' W 073°58'0 0.0
2018-Feb-20 06:00N 40°42' W 073°58'0 0.0
2018-Feb-20 05:30N 40°42' W 073°58'0 0.0
2018-Feb-20 05:00N 40°42' W 073°58'0 0.0
2018-Feb-20 04:30N 40°42' W 073°58'0 0.0
2018-Feb-20 04:00N 40°42' W 073°58'0 0.0
2018-Feb-20 03:30N 40°42' W 073°58'0 0.0
2018-Feb-20 03:00N 40°42' W 073°58'0 0.0
2018-Feb-20 02:30N 40°42' W 073°58'0 0.0
2018-Feb-20 02:00N 40°42' W 073°58'0 0.0
2018-Feb-20 01:30N 40°42' W 073°58'0 0.0
2018-Feb-20 01:00N 40°42' W 073°58'0 0.0
2018-Feb-20 00:29N 40°42' W 073°58'0 0.0
2018-Feb-20 00:00N 40°42' W 073°58'0 0.0
2018-Feb-19 23:30N 40°42' W 073°58'1 2.8
2018-Feb-19 23:00N 40°44' W 073°58'1 2.9
2018-Feb-19 22:30N 40°42' W 073°58'0 0.0
2018-Feb-19 22:00N 40°42' W 073°58'0 0.0
2018-Feb-19 21:29N 40°42' W 073°58'0 0.0
2018-Feb-19 21:00N 40°42' W 073°58'0 0.0
2018-Feb-19 20:30N 40°42' W 073°58'0 0.0
2018-Feb-19 20:00N 40°42' W 073°58'0 0.0
2018-Feb-19 19:30N 40°42' W 073°58'0 0.0
2018-Feb-19 19:00N 40°42' W 073°58'0 0.0
2018-Feb-19 18:30N 40°42' W 073°58'0 0.0
2018-Feb-19 18:00N 40°42' W 073°58'0 0.0
2018-Feb-19 17:30N 40°42' W 073°58'0 0.0
2018-Feb-19 17:00N 40°42' W 073°58'0 0.0
2018-Feb-19 16:29N 40°42' W 073°58'0 0.0
2018-Feb-19 16:00N 40°42' W 073°58'0 0.0
2018-Feb-19 15:30N 40°42' W 073°58'0 0.0
2018-Feb-19 15:01N 40°42' W 073°58'0 0.0
2018-Feb-19 14:30N 40°42' W 073°58'0 0.0
2018-Feb-19 14:00N 40°42' W 073°58'0 0.0
2018-Feb-19 13:30N 40°42' W 073°58'0 0.0
2018-Feb-19 13:00N 40°42' W 073°58'0 0.0
2018-Feb-19 12:30N 40°42' W 073°58'0 0.0
2018-Feb-19 12:00N 40°42' W 073°58'0 0.0
2018-Feb-19 11:30N 40°42' W 073°58'3 5.4
2018-Feb-19 11:00N 40°42' W 074°02'3 5.4
2018-Feb-19 10:30N 40°42' W 073°58'0 0.0
2018-Feb-19 10:01N 40°42' W 073°58'0 0.0
2018-Feb-19 09:30N 40°42' W 073°58'0 0.0
2018-Feb-19 09:00N 40°42' W 073°58'0 0.0
2018-Feb-19 08:30N 40°42' W 073°58'0 0.0
2018-Feb-19 08:00N 40°42' W 073°58'0 0.0
2018-Feb-19 07:30N 40°42' W 073°58'0 0.0
2018-Feb-19 07:00N 40°42' W 073°58'0 0.0
2018-Feb-19 06:30N 40°42' W 073°58'0 0.0
2018-Feb-19 05:59N 40°42' W 073°58'0 0.0
2018-Feb-19 05:29N 40°42' W 073°58'0 0.0
2018-Feb-19 05:01N 40°42' W 073°58'0 0.0
2018-Feb-19 04:31N 40°42' W 073°58'0 0.0
2018-Feb-19 03:59N 40°42' W 073°58'0 0.0
2018-Feb-19 03:30N 40°42' W 073°58'0 0.0
2018-Feb-19 03:00N 40°42' W 073°58'0 0.0
2018-Feb-19 02:30N 40°42' W 073°58'0 0.0
2018-Feb-19 01:59N 40°42' W 073°58'0 0.0
2018-Feb-19 01:29N 40°42' W 073°58'0 0.0
2018-Feb-19 01:01N 40°42' W 073°58'0 0.0
2018-Feb-19 00:30N 40°42' W 073°58'0 0.0
2018-Feb-19 00:01N 40°42' W 073°58'0 0.0
2018-Feb-18 23:30N 40°42' W 073°58'0 0.0
2018-Feb-18 23:00N 40°42' W 073°58'0 0.0
2018-Feb-18 22:30N 40°42' W 073°58'0 0.0
2018-Feb-18 22:00N 40°42' W 073°58'0 0.0
2018-Feb-18 21:30N 40°42' W 073°58'0 0.0
2018-Feb-18 21:00N 40°42' W 073°58'0 0.0
2018-Feb-18 20:31N 40°42' W 073°58'0 0.0
2018-Feb-18 20:01N 40°42' W 073°58'0 0.0
2018-Feb-18 19:30N 40°42' W 073°58'0 0.0
2018-Feb-18 18:59N 40°42' W 073°58'0 0.0
2018-Feb-18 18:30N 40°42' W 073°58'2 4.1
2018-Feb-18 18:00N 40°43' W 074°01'2 4.2
2018-Feb-18 17:30N 40°42' W 073°58'0 0.0
2018-Feb-18 17:00N 40°42' W 073°58'0 0.0
2018-Feb-18 16:30N 40°42' W 073°58'0 0.0
2018-Feb-18 16:00N 40°42' W 073°58'0 0.0
2018-Feb-18 15:29N 40°42' W 073°58'0 0.0
2018-Feb-18 15:00N 40°42' W 073°58'0 0.0
2018-Feb-18 14:30N 40°42' W 073°58'0 0.0
2018-Feb-18 14:00N 40°42' W 073°58'0 0.0
2018-Feb-18 13:29N 40°42' W 073°58'0 0.0
2018-Feb-18 13:00N 40°42' W 073°58'0 0.0
2018-Feb-18 12:30N 40°42' W 073°58'0 0.0
2018-Feb-18 12:00N 40°42' W 073°58'0 0.0
2018-Feb-18 11:29N 40°42' W 073°58'0 0.0
2018-Feb-18 11:00N 40°42' W 073°58'0 0.0
2018-Feb-18 10:30N 40°42' W 073°58'0 0.0
2018-Feb-18 10:00N 40°42' W 073°58'0 0.0
2018-Feb-18 09:30N 40°42' W 073°58'0 0.0
2018-Feb-18 09:00N 40°42' W 073°58'0 0.0
2018-Feb-18 08:30N 40°42' W 073°58'0 0.0
2018-Feb-18 07:59N 40°42' W 073°58'0 0.0
2018-Feb-18 07:30N 40°42' W 073°58'0 0.0
2018-Feb-18 07:00N 40°42' W 073°58'0 0.0
2018-Feb-18 06:30N 40°42' W 073°58'0 0.0
2018-Feb-18 06:00N 40°42' W 073°58'0 0.0
2018-Feb-18 05:30N 40°42' W 073°58'0 0.0
2018-Feb-18 05:00N 40°42' W 073°58'0 0.0
2018-Feb-18 04:30N 40°42' W 073°58'0 0.0
2018-Feb-18 04:00N 40°42' W 073°58'0 0.0
2018-Feb-18 03:30N 40°42' W 073°58'0 0.0
2018-Feb-18 03:00N 40°42' W 073°58'0 0.0
2018-Feb-18 02:30N 40°42' W 073°58'0 0.0
2018-Feb-18 02:00N 40°42' W 073°58'0 0.0
2018-Feb-18 01:28N 40°42' W 073°58'0 0.0
2018-Feb-18 01:00N 40°42' W 073°58'0 0.0
2018-Feb-18 00:30N 40°42' W 073°58'0 0.0
2018-Feb-18 00:00N 40°42' W 073°58'0 0.0
2018-Feb-17 23:30N 40°42' W 073°58'0 0.0
2018-Feb-17 23:00N 40°42' W 073°58'0 0.0
2018-Feb-17 22:30N 40°42' W 073°58'0 0.0
2018-Feb-17 22:00N 40°42' W 073°58'0 0.0
2018-Feb-17 21:30N 40°42' W 073°58'0 0.0
2018-Feb-17 21:00N 40°42' W 073°58'0 0.0
2018-Feb-17 20:30N 40°42' W 073°58'0 0.0
2018-Feb-17 20:00N 40°42' W 073°58'0 0.0
2018-Feb-17 19:30N 40°42' W 073°58'0 0.0
2018-Feb-17 19:00N 40°42' W 073°58'0 0.0
2018-Feb-17 18:30N 40°42' W 073°58'0 0.0
2018-Feb-17 18:00N 40°42' W 073°58'0 0.0
2018-Feb-17 17:30N 40°42' W 073°58'0 0.0
2018-Feb-17 17:00N 40°42' W 073°58'0 0.0
2018-Feb-17 16:30N 40°42' W 073°58'0 0.0
2018-Feb-17 15:59N 40°42' W 073°58'0 0.0
2018-Feb-17 15:30N 40°42' W 073°58'0 0.0
2018-Feb-17 15:00N 40°42' W 073°58'0 0.0
2018-Feb-17 14:30N 40°42' W 073°58'0 0.0
2018-Feb-17 14:00N 40°42' W 073°58'0 0.0
2018-Feb-17 13:30N 40°42' W 073°58'0 0.0
2018-Feb-17 13:00N 40°42' W 073°58'0 0.0
2018-Feb-17 12:30N 40°42' W 073°58'0 0.0
2018-Feb-17 12:00N 40°42' W 073°58'0 0.0
2018-Feb-17 11:30N 40°42' W 073°58'0 0.0
2018-Feb-17 11:00N 40°42' W 073°58'0 0.0
2018-Feb-17 10:30N 40°42' W 073°58'0 0.0
2018-Feb-17 10:00N 40°42' W 073°58'0 0.0
2018-Feb-17 09:30N 40°42' W 073°58'0 0.0
2018-Feb-17 09:00N 40°42' W 073°58'0 0.0
2018-Feb-17 08:30N 40°42' W 073°58'0 0.0
2018-Feb-17 08:00N 40°42' W 073°58'0 0.0
2018-Feb-17 07:29N 40°42' W 073°58'0 0.0
2018-Feb-17 07:00N 40°42' W 073°58'0 0.0
2018-Feb-17 06:30N 40°42' W 073°58'0 0.0
2018-Feb-17 06:00N 40°42' W 073°58'0 0.0
2018-Feb-17 05:30N 40°42' W 073°58'0 0.0
2018-Feb-17 05:00N 40°42' W 073°58'0 0.0
2018-Feb-17 04:30N 40°42' W 073°58'0 0.0
2018-Feb-17 03:59N 40°42' W 073°58'0 0.0
2018-Feb-17 03:30N 40°42' W 073°58'0 0.0
2018-Feb-17 03:00N 40°42' W 073°58'0 0.0
2018-Feb-17 02:30N 40°42' W 073°58'0 0.0
2018-Feb-17 02:00N 40°42' W 073°58'0 0.0
2018-Feb-17 01:30N 40°42' W 073°58'0 0.0
2018-Feb-17 01:00N 40°42' W 073°58'0 0.0
2018-Feb-17 00:30N 40°42' W 073°58'0 0.0
2018-Feb-17 00:00N 40°42' W 073°58'0 0.0
2018-Feb-16 23:30N 40°42' W 073°58'0 0.0
2018-Feb-16 23:00N 40°42' W 073°58'0 0.0
2018-Feb-16 22:30N 40°42' W 073°58'2 4.9
2018-Feb-16 22:00N 40°40' W 073°60'0 0.0
2018-Feb-16 21:30N 40°40' W 073°60'0 0.1
2018-Feb-16 21:00N 40°40' W 073°60'2 4.9
2018-Feb-16 20:30N 40°42' W 073°58'0 0.0
2018-Feb-16 20:00N 40°42' W 073°58'0 0.0
2018-Feb-16 19:30N 40°42' W 073°58'0 0.0
2018-Feb-16 18:59N 40°42' W 073°58'0 0.0
2018-Feb-16 18:30N 40°42' W 073°58'0 0.0
2018-Feb-16 18:00N 40°42' W 073°58'0 0.0
2018-Feb-16 17:30N 40°42' W 073°58'0 0.0
2018-Feb-16 17:00N 40°42' W 073°58'1 2.9
2018-Feb-16 16:30N 40°42' W 074°00'2 3.8
2018-Feb-16 16:00N 40°41' W 074°03'2 3.7
2018-Feb-16 15:30N 40°43' W 074°01'2 4.1
2018-Feb-16 14:59N 40°42' W 073°58'0 0.0
2018-Feb-16 14:30N 40°42' W 073°58'0 0.0
2018-Feb-16 14:00N 40°42' W 073°58'0 0.0
2018-Feb-16 13:30N 40°42' W 073°58'0 0.0
2018-Feb-16 13:00N 40°42' W 073°58'0 0.0
2018-Feb-16 12:30N 40°42' W 073°58'0 0.0
2018-Feb-16 12:00N 40°42' W 073°58'0 0.0
2018-Feb-16 11:30N 40°42' W 073°58'0 0.0
2018-Feb-16 11:00N 40°42' W 073°58'0 0.0
2018-Feb-16 10:30N 40°42' W 073°58'0 0.0
2018-Feb-16 10:00N 40°42' W 073°58'0 0.0
2018-Feb-16 09:30N 40°42' W 073°58'0 0.0
2018-Feb-16 09:00N 40°42' W 073°58'0 0.0
2018-Feb-16 08:30N 40°42' W 073°58'0 0.0
2018-Feb-16 07:59N 40°42' W 073°58'0 0.0
2018-Feb-16 07:30N 40°42' W 073°58'0 0.0
2018-Feb-16 07:00N 40°42' W 073°58'0 0.0
2018-Feb-16 06:30N 40°42' W 073°58'0 0.0
2018-Feb-16 05:57N 40°42' W 073°58'0 0.0
2018-Feb-16 05:30N 40°42' W 073°58'0 0.0
2018-Feb-16 04:55N 40°42' W 073°58'0 0.0
2018-Feb-16 04:30N 40°42' W 073°58'0 0.0
2018-Feb-16 04:00N 40°42' W 073°58'0 0.0
2018-Feb-16 03:30N 40°42' W 073°58'0 0.0
2018-Feb-16 03:00N 40°42' W 073°58'0 0.0
2018-Feb-16 02:30N 40°42' W 073°58'0 0.0
2018-Feb-16 02:00N 40°42' W 073°58'0 0.0
2018-Feb-16 01:30N 40°42' W 073°58'0 0.0
2018-Feb-16 01:00N 40°42' W 073°58'0 0.0
2018-Feb-16 00:30N 40°42' W 073°58'0 0.0
2018-Feb-16 00:00N 40°42' W 073°58'0 0.0
2018-Feb-15 23:30N 40°42' W 073°58'0 0.0
2018-Feb-15 23:00N 40°42' W 073°58'0 0.0
2018-Feb-15 22:30N 40°42' W 073°58'0 0.0
2018-Feb-15 22:00N 40°42' W 073°58'0 0.0
2018-Feb-15 21:30N 40°42' W 073°58'1 1.2
2018-Feb-15 21:00N 40°42' W 073°59'1 1.2
2018-Feb-15 20:30N 40°42' W 073°58'0 0.0
2018-Feb-15 20:00N 40°42' W 073°58'0 0.0
2018-Feb-15 19:30N 40°42' W 073°58'0 0.0
2018-Feb-15 19:00N 40°42' W 073°58'0 0.0
2018-Feb-15 18:28N 40°42' W 073°58'0 0.0
2018-Feb-15 18:00N 40°42' W 073°58'0 0.0
2018-Feb-15 17:30N 40°42' W 073°58'0 0.0
2018-Feb-15 17:00N 40°42' W 073°58'0 0.0
2018-Feb-15 16:29N 40°42' W 073°58'0 0.0
2018-Feb-15 16:00N 40°42' W 073°58'0 0.0
2018-Feb-15 15:30N 40°42' W 073°58'0 0.0
2018-Feb-15 15:00N 40°42' W 073°58'0 0.0
2018-Feb-15 14:30N 40°42' W 073°58'  

Dump ship's entire track history